• Join FlightAware (Why Join?)
  • Login
  • US Flag 
09:31AM EDT


 

Airport Tracker/Info


-or-


 

Live Flight TrackerFlight Track Log ✈ DAL1413 ✈ 01-May-2013 ✈ KATL - KLIT

Flight Track Log - Related Links

Times and Time Zones

All times are in EDT time to prevent confusion due to time zone crossing. See the DAL1413 flight status page for this flight to view local times or setup timezone preferences in your user account.

Time Position Orientation Groundspeed Altitude Reporting Facility
EDT Latitude Longitude Course Direction KTS MPH feet Rate Location/Type
07:59PM 33.6581 -84.3533 268° West 426 490 3,600  Level Atlanta Center
08:00PM 33.6667 -84.3333 63° Northeast 218 251 4,200 1,680 Climbing Atlanta TRACON
08:01PM 33.7167 -84.2667 48° Northeast 264 304 6,000 1,980 Climbing Atlanta TRACON
08:02PM 33.6957 -84.9698 280° West  Level FlightAware Approximate
08:02PM 33.7833 -84.2833 348° North 280 322 8,000  Level Atlanta TRACON
08:03PM 33.7154 -85.1075 280° West  Level FlightAware Approximate
08:03PM 33.8042 -84.4214 280° West 248 285 10,800  Level Atlanta Center
08:04PM 33.7156 -85.2470 268° West  Level FlightAware Approximate
08:04PM 33.7933 -84.5361 264° West 303 349 11,700  Level Atlanta Center
08:05PM 33.7108 -85.3865 268° West  Level FlightAware Approximate
08:05PM 33.7864 -84.6711 266° West 357 411 13,400  Level Atlanta Center
08:06PM 33.7817 -84.7836 267° West 372 428 15,100 1,860 Climbing Atlanta Center
08:08PM 33.7528 -85.0331 262° West 366 421 19,100 1,680 Climbing Atlanta Center
08:09PM 33.7414 -85.1481 263° West 361 415 20,300 900 Climbing Atlanta Center
08:10PM 33.7297 -85.2653 263° West 356 410 20,900 540 Climbing Atlanta Center
08:11PM 33.7139 -85.3775 260° West 372 428 21,400 480 Climbing Atlanta Center
08:12PM 33.7250 -85.5075 276° West 383 441 21,900 540 Climbing Atlanta Center
08:13PM 33.7483 -85.6403 282° West 401 461 22,500 660 Climbing Atlanta Center
08:14PM 33.7778 -85.7733 285° West 415 478 23,300 720 Climbing Atlanta Center
08:15PM 33.8072 -85.9139 284° West 406 467 24,000 780 Climbing Atlanta Center
08:16PM 33.8361 -86.0544 284° West 411 473 24,900 900 Climbing Atlanta Center
08:17PM 33.8653 -86.1953 284° West 425 489 25,900 840 Climbing Atlanta Center
08:19PM 33.8824 -86.3288 279° West  Level FlightAware Approximate
08:19PM 33.9222 -86.4847 279° West 437 503 27,500  Level Atlanta Center
08:20PM 33.9506 -86.6306 283° West 442 509 28,600 1,020 Climbing Atlanta Center
08:21PM 33.9808 -86.7744 284° West 442 509 29,600 240 Climbing Atlanta Center
08:24PM 33.9900 -86.9131 275° West  Level FlightAware Approximate
08:25PM 34.1053 -87.3619 280° West 451 519 30,000  Level Memphis Center
08:26PM 34.1381 -87.5114 285° West 456 525 30,000  Level Memphis Center
08:27PM 34.1703 -87.6558 285° West 456 525 30,000  Level Memphis Center
08:28PM 34.2028 -87.8056 285° West 456 525 30,000  Level Memphis Center
08:29PM 34.2392 -87.9528 287° West 456 525 30,000 300 Level Memphis Center
08:31PM 34.1103 -87.8336 280° West  Level FlightAware Approximate
08:31PM 34.2048 -88.0860 253° West  Level FlightAware Approximate
08:31PM 34.3094 -88.2675 253° West 458 527 30,900  Level Memphis Center
08:32PM 34.3472 -88.4100 288° West 458 527 31,800 540 Climbing Memphis Center
08:33PM 34.3869 -88.5500 289° West 451 519 32,000 60 Climbing Memphis Center
08:34PM 34.4181 -88.6903 285° West 441 507 32,000  Level Memphis Center
08:35PM 34.4533 -88.8283 287° West 435 501 32,000  Level Memphis Center
08:36PM 34.4781 -88.9764 281° West 435 501 32,000  Level Memphis Center
08:37PM 34.5025 -89.1222 282° West 452 520 32,000  Level Memphis Center
08:39PM 34.5021 -89.2438 270° West  Level FlightAware Approximate
08:39PM 34.5114 -89.4269 270° West 447 514 32,000  Level Memphis Center
08:40PM 34.5125 -89.5656 271° West 453 521 32,000 -720 Level Memphis Center
08:41PM 34.5111 -89.7219 269° West 464 534 30,600 -1,500 Descending Memphis Center
08:42PM 34.5139 -89.8808 271° West 469 540 29,000 -1,860 Descending Memphis Center
08:43PM 34.5125 -90.0597 270° West 475 547 26,900 -1,740 Descending Memphis Center
08:44PM 34.5169 -90.2161 272° West 475 547 25,600 -1,020 Descending Memphis Center
08:46PM 34.5553 -90.3342 277° West  Level FlightAware Approximate
08:46PM 34.5275 -90.5261 277° West 470 541 24,000  Level Memphis Center
08:47PM 34.5311 -90.6747 272° West 455 524 24,000 -300 Level Memphis Center
08:48PM 34.5328 -90.8311 271° West 455 524 23,400 -1,860 Descending Memphis Center
08:49PM 34.5428 -90.9775 275° West 455 524 20,300 -2,700 Descending Memphis Center
08:50PM 34.5567 -91.1061 278° West 445 512 18,100 -2,400 Descending Memphis Center
08:51PM 34.5767 -91.2400 280° West 423 487 15,500 -2,760 Descending Memphis Center
08:52PM 34.5886 -91.3208 280° West 386 444 13,900 -2,520 Descending Memphis Center
08:52PM 34.5986 -91.3689 284° West 402 463 13,000 -2,880 Descending Memphis Center
08:53PM 34.6083 -91.4497 278° West 374 430 11,000 -2,820 Descending Memphis Center
08:53PM 34.6164 -91.4928 283° West 381 438 10,200 -1,020 Descending Memphis Center
08:54PM 34.6281 -91.5661 281° West 359 413 10,000 -420 Descending Memphis Center
08:54PM 34.6339 -91.6042 281° West 355 409 9,800 -1,020 Descending Memphis Center
08:55PM 34.6394 -91.6747 275° West 295 339 9,000 -1,440 Descending Memphis Center
08:55PM 34.6433 -91.7078 278° West 320 368 8,400 -1,740 Descending Memphis Center
08:56PM 34.6447 -91.7708 272° West 290 334 7,300 23,580 Descending Memphis Center
08:56PM 34.6528 -91.8011 288° West 302 348 32,000 -2,280 Climbing Memphis Center
08:57PM 34.6497 -91.8769 267° West 297 342 5,000 -27,540 Descending Memphis Center
08:57PM 34.6536 -91.9022 281° West 302 348 4,500 -1,500 Descending Memphis Center
08:58PM 34.6547 -91.9678 271° West 285 328 3,500 -1,500 Descending Memphis Center
08:58PM 34.6650 -91.9933 296° West 287 330 3,000 -1,320 Descending Memphis Center
08:59PM 34.6619 -92.0589 267° West 257 296 2,200 -1,140 Descending Memphis Center
08:59PM 34.6636 -92.0867 274° West 278 320 1,900 -240 Descending Memphis Center
09:00PM 34.6669 -92.1450 274° West 253 291 2,000  Climbing Memphis Center
09:00PM 34.6708 -92.1678 282° West 264 304 1,900 -300 Descending Memphis Center
09:01PM 34.6617 -92.2231 259° West 205 236 1,700 -300 Descending Memphis Center
09:01PM 34.6636 -92.2383 279° West 235 270 1,600 -300 Descending Memphis Center